Time;durP1;ratioP1;P1;durP2;ratioP2;P2;SDS_P1;SDS_P2;PMS_P1;PMS_P2;Temp;Humidity;BMP_temperature;BMP_pressure;BME280_temperature;BME280_humidity;BME280_pressure;Samples;Min_cycle;Max_cycle;Signal;HPM_P1;HPM_P2
2021/03/03 00:00:30;;;;;;;3.53;1.50;;;;;;;;;;5116053;28;20071;-56
2021/03/03 00:02:59;;;;;;;2.73;1.40;;;;;;;;;;5116159;28;20108;-56
2021/03/03 00:05:26;;;;;;;3.40;1.77;;;;;;;;;;5116141;28;20435;-56
2021/03/03 00:07:53;;;;;;;3.43;1.40;;;;;;;;;;5116261;28;20386;-56
2021/03/03 00:10:20;;;;;;;3.90;1.60;;;;;;;;;;5116114;28;20031;-56
2021/03/03 00:12:47;;;;;;;7.40;2.67;;;;;;;;;;5116348;28;20050;-56
2021/03/03 00:15:13;;;;;;;9.23;3.43;;;;;;;;;;5115902;28;20024;-56
2021/03/03 00:17:40;;;;;;;4.27;1.67;;;;;;;;;;5116093;28;20086;-56
2021/03/03 00:20:07;;;;;;;7.10;2.13;;;;;;;;;;5115875;28;20469;-56
2021/03/03 00:22:34;;;;;;;6.13;1.80;;;;;;;;;;5115919;28;20020;-56
2021/03/03 00:25:01;;;;;;;6.93;1.70;;;;;;;;;;5115662;28;20058;-56
2021/03/03 00:27:28;;;;;;;3.37;1.40;;;;;;;;;;5115682;28;20035;-56
2021/03/03 00:29:55;;;;;;;4.23;1.70;;;;;;;;;;5115836;28;20027;-56
2021/03/03 00:32:25;;;;;;;5.60;1.70;;;;;;;;;;5115474;28;20098;-56
2021/03/03 00:34:51;;;;;;;3.20;1.53;;;;;;;;;;5115053;28;20024;-56
2021/03/03 00:37:18;;;;;;;5.53;2.03;;;;;;;;;;5115675;28;20028;-56
2021/03/03 00:39:48;;;;;;;5.03;2.20;;;;;;;;;;5115859;28;20024;-56
2021/03/03 00:42:14;;;;;;;9.23;2.53;;;;;;;;;;5114663;28;20040;-56
2021/03/03 00:44:41;;;;;;;8.53;3.10;;;;;;;;;;5115434;28;20049;-56
2021/03/03 00:47:08;;;;;;;11.63;4.00;;;;;;;;;;5115533;28;20397;-56
2021/03/03 00:49:35;;;;;;;12.30;2.57;;;;;;;;;;5115562;28;20120;-56
2021/03/03 00:52:02;;;;;;;8.53;2.63;;;;;;;;;;5115188;28;20027;-56
2021/03/03 00:54:28;;;;;;;6.23;2.27;;;;;;;;;;5115071;28;20066;-56
2021/03/03 00:56:55;;;;;;;13.27;2.60;;;;;;;;;;5115246;28;20103;-56
2021/03/03 00:59:22;;;;;;;19.27;2.90;;;;;;;;;;5115551;27;20409;-56
2021/03/03 01:01:49;;;;;;;15.07;3.20;;;;;;;;;;5115157;28;20027;-56
2021/03/03 01:04:15;;;;;;;13.20;2.67;;;;;;;;;;5114934;28;20482;-56
2021/03/03 01:06:42;;;;;;;17.27;3.50;;;;;;;;;;5115171;28;20039;-56
2021/03/03 01:09:12;;;;;;;9.50;2.50;;;;;;;;;;5115045;28;20381;-56
2021/03/03 01:11:39;;;;;;;9.80;2.47;;;;;;;;;;5114905;28;20027;-56
2021/03/03 01:14:06;;;;;;;9.83;2.73;;;;;;;;;;5115198;28;20020;-56
2021/03/03 01:16:32;;;;;;;6.20;2.37;;;;;;;;;;5114937;28;20027;-56
2021/03/03 01:18:59;;;;;;;4.20;1.97;;;;;;;;;;5114947;28;20028;-56
2021/03/03 01:21:26;;;;;;;7.33;2.10;;;;;;;;;;5114855;28;20027;-56
2021/03/03 01:23:53;;;;;;;5.20;2.27;;;;;;;;;;5114720;28;20020;-56
2021/03/03 01:26:20;;;;;;;7.80;3.50;;;;;;;;;;5114445;28;20039;-56
2021/03/03 01:28:46;;;;;;;7.50;3.27;;;;;;;;;;5114753;28;20383;-56
2021/03/03 01:31:13;;;;;;;8.33;3.00;;;;;;;;;;5114626;28;20019;-56
2021/03/03 01:33:40;;;;;;;6.43;2.73;;;;;;;;;;5114646;28;20367;-56
2021/03/03 01:36:07;;;;;;;4.80;2.30;;;;;;;;;;5114469;28;20031;-56
2021/03/03 01:38:34;;;;;;;12.90;2.70;;;;;;;;;;5114509;28;20024;-56
2021/03/03 01:41:01;;;;;;;15.13;2.50;;;;;;;;;;5114501;28;20020;-56
2021/03/03 01:43:31;;;;;;;4.07;2.33;;;;;;;;;;5114314;28;20015;-56
2021/03/03 01:45:58;;;;;;;6.30;3.00;;;;;;;;;;5113218;28;20040;-56
2021/03/03 01:48:25;;;;;;;7.47;2.50;;;;;;;;;;5114227;28;20038;-56
2021/03/03 01:50:53;;;;;;;7.60;3.07;;;;;;;;;;5114219;28;20092;-56
2021/03/03 01:53:20;;;;;;;5.87;2.73;;;;;;;;;;5114040;28;20394;-56
2021/03/03 01:55:47;;;;;;;4.87;2.60;;;;;;;;;;5114210;28;20019;-56
2021/03/03 01:58:13;;;;;;;11.57;3.10;;;;;;;;;;5113965;28;20419;-55
2021/03/03 02:00:40;;;;;;;6.40;2.80;;;;;;;;;;5113570;28;20051;-55
2021/03/03 02:03:07;;;;;;;7.13;2.47;;;;;;;;;;5114008;28;20028;-54
2021/03/03 02:05:34;;;;;;;11.93;4.10;;;;;;;;;;5113760;28;20035;-54
2021/03/03 02:08:04;;;;;;;6.93;3.43;;;;;;;;;;5113869;28;20024;-54
2021/03/03 02:10:40;;;;;;;5.53;2.57;;;;;;;;;;5113528;28;20028;-54
2021/03/03 02:13:19;;;;;;;5.00;2.37;;;;;;;;;;5113742;28;20028;-54
2021/03/03 02:15:47;;;;;;;9.27;2.77;;;;;;;;;;5113625;28;20019;-54
2021/03/03 02:18:14;;;;;;;7.67;2.80;;;;;;;;;;5113845;28;20045;-54
2021/03/03 02:21:00;;;;;;;17.07;3.20;;;;;;;;;;5113584;28;20107;-54
2021/03/03 02:23:26;;;;;;;;;;;;;;;;;;5114060;28;20023;-55
2021/03/03 02:25:53;;;;;;;13.10;2.80;;;;;;;;;;5113631;28;19912;-54
2021/03/03 02:28:21;;;;;;;14.27;3.70;;;;;;;;;;5113602;28;20024;-55
2021/03/03 02:30:48;;;;;;;11.90;3.63;;;;;;;;;;5113428;28;20036;-54
2021/03/03 02:33:17;;;;;;;14.20;3.83;;;;;;;;;;5113480;28;20026;-54
2021/03/03 02:35:46;;;;;;;10.50;3.63;;;;;;;;;;5113418;28;20027;-54
2021/03/03 02:38:14;;;;;;;6.83;3.43;;;;;;;;;;5113793;28;20024;-54
2021/03/03 02:40:41;;;;;;;5.23;2.80;;;;;;;;;;5113356;28;20042;-54
2021/03/03 02:43:12;;;;;;;10.47;3.67;;;;;;;;;;5113204;28;20030;-54
2021/03/03 02:45:39;;;;;;;5.57;3.33;;;;;;;;;;5113152;28;20035;-54
2021/03/03 02:48:07;;;;;;;10.57;3.83;;;;;;;;;;5113250;28;20032;-54
2021/03/03 02:50:34;;;;;;;4.83;3.27;;;;;;;;;;5113394;28;20047;-54
2021/03/03 02:53:01;;;;;;;8.07;3.60;;;;;;;;;;5113141;28;20089;-54
2021/03/03 02:55:28;;;;;;;8.77;3.93;;;;;;;;;;5113123;28;20053;-54
2021/03/03 02:57:56;;;;;;;7.50;3.93;;;;;;;;;;5112874;28;20024;-54
2021/03/03 03:00:42;;;;;;;5.33;3.27;;;;;;;;;;5113678;27;20094;-54
2021/03/03 03:03:18;;;;;;;8.43;4.13;;;;;;;;;;5113140;28;20051;-54
2021/03/03 03:05:46;;;;;;;7.47;3.80;;;;;;;;;;5113068;28;20039;-54
2021/03/03 03:08:14;;;;;;;5.60;3.53;;;;;;;;;;5112977;28;20086;-54
2021/03/03 03:10:42;;;;;;;14.13;4.20;;;;;;;;;;5112930;28;20076;-54
2021/03/03 03:13:10;;;;;;;6.30;3.13;;;;;;;;;;5113019;28;20020;-54
2021/03/03 03:15:38;;;;;;;8.57;3.57;;;;;;;;;;5113004;28;20035;-54
2021/03/03 03:18:05;;;;;;;6.10;3.80;;;;;;;;;;5112999;28;20023;-54
2021/03/03 03:20:34;;;;;;;5.17;3.23;;;;;;;;;;5113072;28;20020;-54
2021/03/03 03:23:01;;;;;;;10.33;4.33;;;;;;;;;;5113033;28;20386;-54
2021/03/03 03:25:29;;;;;;;8.10;4.00;;;;;;;;;;5112924;28;20039;-54
2021/03/03 03:27:56;;;;;;;6.00;4.00;;;;;;;;;;5113164;28;20028;-54
2021/03/03 03:30:24;;;;;;;9.90;3.87;;;;;;;;;;5112783;28;20016;-54
2021/03/03 03:32:51;;;;;;;7.20;3.90;;;;;;;;;;5112655;28;20035;-54
2021/03/03 03:35:18;;;;;;;10.57;3.63;;;;;;;;;;5094517;28;20474;-54
2021/03/03 03:37:45;;;;;;;12.20;4.70;;;;;;;;;;5112870;28;20098;-54
2021/03/03 03:40:12;;;;;;;10.17;4.53;;;;;;;;;;5112736;28;20055;-54
2021/03/03 03:42:40;;;;;;;14.90;4.97;;;;;;;;;;5112859;28;20103;-54
2021/03/03 03:45:08;;;;;;;7.50;4.03;;;;;;;;;;5112587;28;20035;-54
2021/03/03 03:47:36;;;;;;;7.63;3.90;;;;;;;;;;5112734;28;20059;-54
2021/03/03 03:50:05;;;;;;;12.27;3.70;;;;;;;;;;5112792;28;20023;-54
2021/03/03 03:52:32;;;;;;;7.40;3.13;;;;;;;;;;5112608;28;20423;-54
2021/03/03 03:54:59;;;;;;;7.67;3.97;;;;;;;;;;5112546;28;20028;-54
2021/03/03 03:57:26;;;;;;;6.97;3.60;;;;;;;;;;5112535;28;20115;-54
2021/03/03 03:59:56;;;;;;;8.70;3.73;;;;;;;;;;5113658;27;20052;-54
2021/03/03 04:02:22;;;;;;;7.63;4.20;;;;;;;;;;5112509;28;20035;-54
2021/03/03 04:04:49;;;;;;;9.03;4.10;;;;;;;;;;5112561;28;20028;-54
2021/03/03 04:07:16;;;;;;;13.20;4.47;;;;;;;;;;5112534;28;20050;-55
2021/03/03 04:09:43;;;;;;;9.57;4.47;;;;;;;;;;5114699;28;20020;-55
2021/03/03 04:12:10;;;;;;;6.57;3.57;;;;;;;;;;5116127;28;20023;-55
2021/03/03 04:14:37;;;;;;;9.70;3.73;;;;;;;;;;5116025;28;20386;-55
2021/03/03 04:17:04;;;;;;;9.57;4.73;;;;;;;;;;5116087;28;20052;-55
2021/03/03 04:19:31;;;;;;;8.07;4.30;;;;;;;;;;5115942;28;20028;-55
2021/03/03 04:21:57;;;;;;;29.33;9.73;;;;;;;;;;5115798;28;20049;-55
2021/03/03 04:24:27;;;;;;;22.97;8.97;;;;;;;;;;5115968;28;20094;-55
2021/03/03 04:26:54;;;;;;;15.83;7.23;;;;;;;;;;5115849;28;20040;-55
2021/03/03 04:29:20;;;;;;;18.97;7.00;;;;;;;;;;5115893;28;20024;-55
2021/03/03 04:31:47;;;;;;;14.37;6.87;;;;;;;;;;5115851;28;20027;-55
2021/03/03 04:34:14;;;;;;;14.03;6.43;;;;;;;;;;5115850;28;20066;-55
2021/03/03 04:36:41;;;;;;;7.90;4.67;;;;;;;;;;5115455;28;20114;-55
2021/03/03 04:39:08;;;;;;;13.63;5.13;;;;;;;;;;5115836;28;20464;-55
2021/03/03 04:41:34;;;;;;;15.37;6.17;;;;;;;;;;5115693;28;20035;-55
2021/03/03 04:44:01;;;;;;;11.63;5.53;;;;;;;;;;5115561;28;20431;-55
2021/03/03 04:46:28;;;;;;;13.20;5.70;;;;;;;;;;5115389;28;20097;-55
2021/03/03 04:48:55;;;;;;;12.70;5.80;;;;;;;;;;5115463;28;20019;-55
2021/03/03 04:51:22;;;;;;;15.60;5.67;;;;;;;;;;5115542;28;20028;-55
2021/03/03 04:53:48;;;;;;;9.23;5.10;;;;;;;;;;5115315;28;20031;-55
2021/03/03 04:56:15;;;;;;;16.10;6.47;;;;;;;;;;5115480;28;20032;-55
2021/03/03 04:58:42;;;;;;;9.83;5.90;;;;;;;;;;5116442;27;20028;-57
2021/03/03 05:01:09;;;;;;;13.47;5.97;;;;;;;;;;5115375;28;20042;-54
2021/03/03 05:03:35;;;;;;;9.30;5.20;;;;;;;;;;5115245;28;20098;-55
2021/03/03 05:06:11;;;;;;;11.73;5.47;;;;;;;;;;5115152;28;20112;-54
2021/03/03 05:08:38;;;;;;;12.37;6.80;;;;;;;;;;5115085;28;20386;-55
2021/03/03 05:11:08;;;;;;;10.13;5.97;;;;;;;;;;5114958;28;20027;-55
2021/03/03 05:13:35;;;;;;;9.20;5.17;;;;;;;;;;5114866;28;20023;-54
2021/03/03 05:16:01;;;;;;;11.57;5.53;;;;;;;;;;5115062;28;20084;-54
2021/03/03 05:18:28;;;;;;;13.03;5.73;;;;;;;;;;5115049;28;20055;-54
2021/03/03 05:20:55;;;;;;;18.63;6.23;;;;;;;;;;5114887;28;20020;-54
2021/03/03 05:23:28;;;;;;;12.37;6.47;;;;;;;;;;5114676;28;20103;-54
2021/03/03 05:25:54;;;;;;;15.13;7.70;;;;;;;;;;5114567;28;20031;-54
2021/03/03 05:28:21;;;;;;;15.33;7.87;;;;;;;;;;5114784;28;20062;-54
2021/03/03 05:30:48;;;;;;;20.77;7.70;;;;;;;;;;5114589;28;20363;-54
2021/03/03 05:33:28;;;;;;;9.47;5.67;;;;;;;;;;5114473;28;20369;-54
2021/03/03 05:35:56;;;;;;;11.00;5.60;;;;;;;;;;5114589;28;20024;-54
2021/03/03 05:38:22;;;;;;;17.13;6.50;;;;;;;;;;5114569;28;20431;-54
2021/03/03 05:40:53;;;;;;;7.33;4.57;;;;;;;;;;5114364;28;20035;-54
2021/03/03 05:43:20;;;;;;;8.40;5.27;;;;;;;;;;5114252;28;20359;-54
2021/03/03 05:45:47;;;;;;;10.47;4.63;;;;;;;;;;5114328;28;20032;-54
2021/03/03 05:48:25;;;;;;;14.77;6.40;;;;;;;;;;5114366;28;20055;-54
2021/03/03 05:51:00;;;;;;;7.87;4.37;;;;;;;;;;5114617;28;20106;-54
2021/03/03 05:53:27;;;;;;;11.73;5.17;;;;;;;;;;5114142;28;20015;-54
2021/03/03 05:55:58;;;;;;;9.83;4.33;;;;;;;;;;5114237;28;20066;-54
2021/03/03 05:58:27;;;;;;;12.23;4.73;;;;;;;;;;5114138;28;20021;-54
2021/03/03 06:00:56;;;;;;;7.10;4.13;;;;;;;;;;5115197;27;20052;-54
2021/03/03 06:03:26;;;;;;;13.63;4.40;;;;;;;;;;5114020;28;20012;-54
2021/03/03 06:05:53;;;;;;;11.20;5.10;;;;;;;;;;5113830;28;20390;-54
2021/03/03 06:08:26;;;;;;;6.83;3.90;;;;;;;;;;5114032;28;20016;-54
2021/03/03 06:10:53;;;;;;;9.70;3.83;;;;;;;;;;5114016;28;20045;-54
2021/03/03 06:13:20;;;;;;;14.70;5.70;;;;;;;;;;5113874;28;20023;-54
2021/03/03 06:15:47;;;;;;;16.53;5.60;;;;;;;;;;5113945;28;20474;-54
2021/03/03 06:18:15;;;;;;;8.73;4.43;;;;;;;;;;5113728;28;20024;-54
2021/03/03 06:20:42;;;;;;;9.40;4.73;;;;;;;;;;5113658;28;20118;-54
2021/03/03 06:23:18;;;;;;;7.43;3.80;;;;;;;;;;5113716;28;20097;-54
2021/03/03 06:25:46;;;;;;;9.67;4.33;;;;;;;;;;5113479;28;20040;-54
2021/03/03 06:28:13;;;;;;;9.63;5.30;;;;;;;;;;5113687;28;20027;-54
2021/03/03 06:30:40;;;;;;;7.20;3.80;;;;;;;;;;5113511;28;20096;-54
2021/03/03 06:33:08;;;;;;;7.37;4.10;;;;;;;;;;5113147;28;20125;-54
2021/03/03 06:35:35;;;;;;;9.37;4.10;;;;;;;;;;5113460;28;20028;-54
2021/03/03 06:38:02;;;;;;;8.33;4.20;;;;;;;;;;5113546;28;20032;-54
2021/03/03 06:40:29;;;;;;;10.60;3.63;;;;;;;;;;5113375;28;20066;-54
2021/03/03 06:42:57;;;;;;;5.70;3.53;;;;;;;;;;5113292;28;20374;-54
2021/03/03 06:45:30;;;;;;;8.57;3.50;;;;;;;;;;5113268;28;20027;-54
2021/03/03 06:47:58;;;;;;;7.93;3.57;;;;;;;;;;5113309;28;20050;-54
2021/03/03 06:50:38;;;;;;;7.90;4.17;;;;;;;;;;5113608;28;20023;-54
2021/03/03 06:53:05;;;;;;;7.57;3.30;;;;;;;;;;5113141;28;20036;-54
2021/03/03 06:55:48;;;;;;;6.73;3.50;;;;;;;;;;5113192;28;20024;-54
2021/03/03 06:58:26;;;;;;;6.07;3.50;;;;;;;;;;5113287;28;20029;-54
2021/03/03 07:00:53;;;;;;;8.10;2.80;;;;;;;;;;5114216;27;20433;-54
2021/03/03 07:03:32;;;;;;;6.83;3.27;;;;;;;;;;5113146;28;20019;-54
2021/03/03 07:06:00;;;;;;;6.30;3.67;;;;;;;;;;5113017;28;20031;-54
2021/03/03 07:08:27;;;;;;;11.30;3.53;;;;;;;;;;5113055;28;20043;-54
2021/03/03 07:10:54;;;;;;;4.93;2.90;;;;;;;;;;5113269;28;20020;-54
2021/03/03 07:13:40;;;;;;;8.33;3.47;;;;;;;;;;5113113;28;20026;-54
2021/03/03 07:16:08;;;;;;;6.70;3.00;;;;;;;;;;5113094;28;20020;-54
2021/03/03 07:18:39;;;;;;;8.77;3.27;;;;;;;;;;5112972;28;20424;-54
2021/03/03 07:21:07;;;;;;;5.77;2.83;;;;;;;;;;5113111;28;20076;-54
2021/03/03 07:23:44;;;;;;;4.57;2.50;;;;;;;;;;5112862;28;20028;-54
2021/03/03 07:26:12;;;;;;;9.10;2.83;;;;;;;;;;5112934;28;20118;-54
2021/03/03 07:28:40;;;;;;;10.60;4.23;;;;;;;;;;5112911;28;20024;-54
2021/03/03 07:31:10;;;;;;;7.57;3.50;;;;;;;;;;5112987;28;20244;-54
2021/03/03 07:33:37;;;;;;;8.30;3.37;;;;;;;;;;5112891;28;20587;-54
2021/03/03 07:36:05;;;;;;;9.53;3.33;;;;;;;;;;5112798;28;20583;-54
2021/03/03 07:38:34;;;;;;;11.47;4.17;;;;;;;;;;5113051;28;20614;-54
2021/03/03 07:41:04;;;;;;;13.03;4.17;;;;;;;;;;5112904;28;20240;-54
2021/03/03 07:43:32;;;;;;;10.97;4.40;;;;;;;;;;5112994;28;20313;-54
2021/03/03 07:46:01;;;;;;;11.70;4.87;;;;;;;;;;5116658;28;20283;-54
2021/03/03 07:48:29;;;;;;;10.07;3.90;;;;;;;;;;5116755;28;20252;-54
2021/03/03 07:50:58;;;;;;;17.50;5.47;;;;;;;;;;5116861;28;20248;-54
2021/03/03 07:53:25;;;;;;;7.80;3.57;;;;;;;;;;5116470;28;20255;-54
2021/03/03 07:55:55;;;;;;;11.33;3.80;;;;;;;;;;5116405;28;20240;-54
2021/03/03 07:58:23;;;;;;;10.23;3.87;;;;;;;;;;5116511;28;20762;-54
2021/03/03 08:01:02;;;;;;;11.07;4.27;;;;;;;;;;5118531;27;20371;-54
2021/03/03 08:03:48;;;;;;;8.53;3.73;;;;;;;;;;5116296;28;20606;-54
2021/03/03 08:06:21;;;;;;;14.87;3.40;;;;;;;;;;5116348;28;20287;-54
2021/03/03 08:09:18;;;;;;;7.00;3.23;;;;;;;;;;5116742;28;20252;-54
2021/03/03 08:11:46;;;;;;;7.70;2.90;;;;;;;;;;5095600;28;20264;-54
2021/03/03 08:14:29;;;;;;;6.67;3.27;;;;;;;;;;5116151;28;20236;-54
2021/03/03 08:16:57;;;;;;;10.47;3.37;;;;;;;;;;5116243;28;20244;-54
2021/03/03 08:19:44;;;;;;;7.50;3.60;;;;;;;;;;5116171;28;20259;-54
2021/03/03 08:22:10;;;;;;;5.63;2.70;;;;;;;;;;5115897;28;20287;-54
2021/03/03 08:24:38;;;;;;;4.77;2.93;;;;;;;;;;5115916;28;20252;-54
2021/03/03 08:27:24;;;;;;;4.60;2.67;;;;;;;;;;5116152;28;20658;-54
2021/03/03 08:30:10;;;;;;;6.03;2.80;;;;;;;;;;5115735;28;20710;-54
2021/03/03 08:32:37;;;;;;;4.68;2.67;;;;;;;;;;5115766;28;20289;-54
2021/03/03 08:35:04;;;;;;;4.83;3.07;;;;;;;;;;5115767;28;20030;-54
2021/03/03 08:37:32;;;;;;;3.93;2.23;;;;;;;;;;5115747;28;20260;-54
2021/03/03 08:39:59;;;;;;;4.67;2.37;;;;;;;;;;5115717;28;20252;-54
2021/03/03 08:42:27;;;;;;;6.33;2.57;;;;;;;;;;5115686;28;20252;-54
2021/03/03 08:45:08;;;;;;;5.70;2.50;;;;;;;;;;5097241;28;20749;-54
2021/03/03 08:47:44;;;;;;;4.43;2.37;;;;;;;;;;5115608;28;20251;-54
2021/03/03 08:50:29;;;;;;;7.27;2.43;;;;;;;;;;5115455;28;20275;-54
2021/03/03 08:53:14;;;;;;;6.43;2.65;;;;;;;;;;5115388;28;20294;-54
2021/03/03 08:55:41;;;;;;;4.07;2.28;;;;;;;;;;5115064;28;20447;-54
2021/03/03 08:58:26;;;;;;;3.23;1.80;;;;;;;;;;5115260;28;20438;-54
2021/03/03 09:00:53;;;;;;;3.70;1.98;;;;;;;;;;5116283;27;20276;-54
2021/03/03 09:03:20;;;;;;;9.00;2.60;;;;;;;;;;5115093;28;20026;-54
2021/03/03 09:05:47;;;;;;;3.87;2.40;;;;;;;;;;5114932;28;20286;-54
2021/03/03 09:08:20;;;;;;;6.80;2.20;;;;;;;;;;5114955;28;20305;-54
2021/03/03 09:10:48;;;;;;;6.23;2.97;;;;;;;;;;5115169;28;20327;-54
2021/03/03 09:13:21;;;;;;;4.93;2.70;;;;;;;;;;5114768;28;20297;-54
2021/03/03 09:16:06;;;;;;;5.97;3.07;;;;;;;;;;5114935;28;20667;-54
2021/03/03 09:18:34;;;;;;;4.75;2.60;;;;;;;;;;5114952;28;20252;-54
2021/03/03 09:21:07;;;;;;;4.67;2.57;;;;;;;;;;5114905;28;20020;-54
2021/03/03 09:23:34;;;;;;;5.77;2.33;;;;;;;;;;5114753;28;20256;-54
2021/03/03 09:26:01;;;;;;;5.10;2.67;;;;;;;;;;5114637;28;20284;-54
2021/03/03 09:28:40;;;;;;;5.00;3.10;;;;;;;;;;5114707;28;20252;-54
2021/03/03 09:31:07;;;;;;;4.53;2.40;;;;;;;;;;5114627;28;20587;-54
2021/03/03 09:33:34;;;;;;;3.77;2.00;;;;;;;;;;5114552;28;20252;-54
2021/03/03 09:36:01;;;;;;;5.13;2.87;;;;;;;;;;5114439;28;20271;-54
2021/03/03 09:38:31;;;;;;;6.03;3.77;;;;;;;;;;5114546;28;20615;-54
2021/03/03 09:41:09;;;;;;;4.73;2.43;;;;;;;;;;5096247;28;20256;-54
2021/03/03 09:43:36;;;;;;;5.30;2.70;;;;;;;;;;5114348;28;20279;-54
2021/03/03 09:46:03;;;;;;;4.10;2.60;;;;;;;;;;5114154;28;20291;-54
2021/03/03 09:48:30;;;;;;;4.17;2.30;;;;;;;;;;5114367;28;20240;-54
2021/03/03 09:50:58;;;;;;;5.63;2.73;;;;;;;;;;5114599;28;20248;-54
2021/03/03 09:53:25;;;;;;;6.70;2.83;;;;;;;;;;5114322;28;20256;-54
2021/03/03 09:55:51;;;;;;;4.03;2.30;;;;;;;;;;5114583;28;20280;-54
2021/03/03 09:58:18;;;;;;;5.90;2.87;;;;;;;;;;5095919;28;20784;-54
2021/03/03 10:00:45;;;;;;;8.17;2.63;;;;;;;;;;5114319;27;20375;-54
2021/03/03 10:03:13;;;;;;;5.23;2.80;;;;;;;;;;5113896;28;20280;-54
2021/03/03 10:05:41;;;;;;;5.80;2.97;;;;;;;;;;5113846;28;20340;-54
2021/03/03 10:08:13;;;;;;;5.60;3.23;;;;;;;;;;5113216;28;20730;-54
2021/03/03 10:10:41;;;;;;;6.03;3.73;;;;;;;;;;5113978;28;20335;-53
2021/03/03 10:13:19;;;;;;;6.57;2.97;;;;;;;;;;5113724;28;20252;-54
2021/03/03 10:15:46;;;;;;;5.07;2.87;;;;;;;;;;5113647;28;20762;-54
2021/03/03 10:18:12;;;;;;;10.47;3.60;;;;;;;;;;5113811;28;20610;-54
2021/03/03 10:20:39;;;;;;;7.77;4.30;;;;;;;;;;5113607;28;20335;-54
2021/03/03 10:23:11;;;;;;;7.87;3.90;;;;;;;;;;5113641;28;20249;-54
2021/03/03 10:25:42;;;;;;;7.17;3.50;;;;;;;;;;5113615;28;20283;-54
2021/03/03 10:28:13;;;;;;;6.27;3.90;;;;;;;;;;5113571;28;20256;-54
2021/03/03 10:30:41;;;;;;;7.70;3.97;;;;;;;;;;5113650;28;20247;-54
2021/03/03 10:33:09;;;;;;;6.40;3.10;;;;;;;;;;5113592;28;20339;-54
2021/03/03 10:35:52;;;;;;;5.30;2.80;;;;;;;;;;5113619;28;20250;-54
2021/03/03 10:38:20;;;;;;;7.83;4.10;;;;;;;;;;5113306;28;20256;-54
2021/03/03 10:40:48;;;;;;;8.60;4.17;;;;;;;;;;5113551;28;20275;-54
2021/03/03 10:43:16;;;;;;;8.10;4.57;;;;;;;;;;5113318;28;20267;-54
2021/03/03 10:45:44;;;;;;;7.83;4.83;;;;;;;;;;5113195;28;20607;-53
2021/03/03 10:48:25;;;;;;;7.27;3.87;;;;;;;;;;5113437;28;20252;-54
2021/03/03 10:50:52;;;;;;;7.50;4.33;;;;;;;;;;5113448;28;20323;-54
2021/03/03 10:53:19;;;;;;;7.17;3.60;;;;;;;;;;5112963;28;20274;-54
2021/03/03 10:55:46;;;;;;;6.83;3.40;;;;;;;;;;5113533;28;20283;-54
2021/03/03 10:58:13;;;;;;;9.63;4.47;;;;;;;;;;5113247;28;20248;-54
2021/03/03 11:00:54;;;;;;;6.87;3.30;;;;;;;;;;5113527;27;20316;-53
2021/03/03 11:03:20;;;;;;;5.33;3.27;;;;;;;;;;5112936;28;20248;-54
2021/03/03 11:05:54;;;;;;;9.57;3.50;;;;;;;;;;5113008;28;20359;-54
2021/03/03 11:08:21;;;;;;;7.20;3.70;;;;;;;;;;5113056;28;20268;-54
2021/03/03 11:10:48;;;;;;;6.10;3.33;;;;;;;;;;5113276;28;20241;-54
2021/03/03 11:13:15;;;;;;;4.80;3.07;;;;;;;;;;5113090;28;20252;-53
2021/03/03 11:15:43;;;;;;;6.07;2.40;;;;;;;;;;5113135;28;20248;-54
2021/03/03 11:18:10;;;;;;;5.10;2.60;;;;;;;;;;5114504;28;20255;-54
2021/03/03 11:20:37;;;;;;;5.60;3.03;;;;;;;;;;5117087;28;20340;-54
2021/03/03 11:23:05;;;;;;;3.60;1.90;;;;;;;;;;5117108;28;20274;-53
2021/03/03 11:25:32;;;;;;;5.90;2.40;;;;;;;;;;5116866;28;20335;-54
2021/03/03 11:27:59;;;;;;;4.87;2.77;;;;;;;;;;5116907;28;20248;-54
2021/03/03 11:30:26;;;;;;;5.53;2.80;;;;;;;;;;5117191;28;20776;-54
2021/03/03 11:32:52;;;;;;;8.50;3.17;;;;;;;;;;5116907;28;20248;-54
2021/03/03 11:35:20;;;;;;;5.23;2.87;;;;;;;;;;5116874;28;20244;-54
2021/03/03 11:37:47;;;;;;;4.43;2.60;;;;;;;;;;5117082;28;20657;-54
2021/03/03 11:40:15;;;;;;;5.33;2.53;;;;;;;;;;5116971;28;20266;-54
2021/03/03 11:42:41;;;;;;;6.70;2.50;;;;;;;;;;5116652;28;20277;-54
2021/03/03 11:45:09;;;;;;;6.80;2.90;;;;;;;;;;5116735;28;20255;-54
2021/03/03 11:47:36;;;;;;;6.03;2.93;;;;;;;;;;5116822;28;20256;-54
2021/03/03 11:50:03;;;;;;;4.10;2.40;;;;;;;;;;5116824;28;20254;-53
2021/03/03 11:52:30;;;;;;;4.50;2.70;;;;;;;;;;5116424;28;20244;-53
2021/03/03 11:54:57;;;;;;;6.67;2.47;;;;;;;;;;5116606;28;20248;-54
2021/03/03 11:57:24;;;;;;;4.43;2.50;;;;;;;;;;5116370;28;20347;-54
2021/03/03 11:59:54;;;;;;;6.30;2.90;;;;;;;;;;5117710;27;20247;-54
2021/03/03 12:02:27;;;;;;;6.27;2.80;;;;;;;;;;5116951;27;20333;-54
2021/03/03 12:04:53;;;;;;;4.90;2.60;;;;;;;;;;5116184;28;20339;-53
2021/03/03 12:07:20;;;;;;;3.93;2.40;;;;;;;;;;5116143;28;20600;-53
2021/03/03 12:09:47;;;;;;;4.90;2.90;;;;;;;;;;5116328;28;20244;-54
2021/03/03 12:12:14;;;;;;;5.63;2.80;;;;;;;;;;5116024;28;20288;-53
2021/03/03 12:14:41;;;;;;;6.80;2.73;;;;;;;;;;5097723;28;20829;-54
2021/03/03 12:17:08;;;;;;;5.10;2.50;;;;;;;;;;5116224;28;20335;-54
2021/03/03 12:19:35;;;;;;;4.60;2.90;;;;;;;;;;5116163;28;20252;-54
2021/03/03 12:22:01;;;;;;;4.97;2.97;;;;;;;;;;5115941;28;20614;-53
2021/03/03 12:24:28;;;;;;;6.47;2.67;;;;;;;;;;5116047;28;20260;-54
2021/03/03 12:27:06;;;;;;;5.57;2.67;;;;;;;;;;5115912;28;20284;-54
2021/03/03 12:29:33;;;;;;;4.57;2.40;;;;;;;;;;5115134;28;20715;-54
2021/03/03 12:32:00;;;;;;;5.63;2.63;;;;;;;;;;5115841;28;20260;-53
2021/03/03 12:34:27;;;;;;;5.33;2.90;;;;;;;;;;5115693;28;20281;-54
2021/03/03 12:36:54;;;;;;;4.90;2.73;;;;;;;;;;5115717;28;20256;-53
2021/03/03 12:39:20;;;;;;;4.23;2.80;;;;;;;;;;5115717;28;20252;-54
2021/03/03 12:41:47;;;;;;;5.33;3.13;;;;;;;;;;5115529;28;20252;-54
2021/03/03 12:44:14;;;;;;;6.50;3.10;;;;;;;;;;5115526;28;20259;-54
2021/03/03 12:46:41;;;;;;;10.07;3.90;;;;;;;;;;5115421;28;20372;-54
2021/03/03 12:49:08;;;;;;;11.67;3.40;;;;;;;;;;5115366;28;20600;-54
2021/03/03 12:51:34;;;;;;;5.20;3.10;;;;;;;;;;5115390;28;20643;-53
2021/03/03 12:54:01;;;;;;;11.77;3.73;;;;;;;;;;5115444;28;20580;-54
2021/03/03 12:56:28;;;;;;;4.70;2.70;;;;;;;;;;5115351;28;20446;-53
2021/03/03 12:58:55;;;;;;;9.17;2.93;;;;;;;;;;5115194;28;20773;-54
2021/03/03 13:01:21;;;;;;;11.07;3.07;;;;;;;;;;5115798;27;20303;-54
2021/03/03 13:03:48;;;;;;;5.67;2.90;;;;;;;;;;5115181;28;20256;-54
2021/03/03 13:06:15;;;;;;;6.93;3.30;;;;;;;;;;5115036;28;20287;-54
2021/03/03 13:08:42;;;;;;;5.27;2.83;;;;;;;;;;5115188;28;20361;-54
2021/03/03 13:11:08;;;;;;;6.10;2.80;;;;;;;;;;5097021;28;20295;-54
2021/03/03 13:13:35;;;;;;;5.87;2.87;;;;;;;;;;5115080;28;20305;-54
2021/03/03 13:16:02;;;;;;;4.60;2.87;;;;;;;;;;5115247;28;20248;-53
2021/03/03 13:18:29;;;;;;;6.00;3.07;;;;;;;;;;5114808;28;20312;-54
2021/03/03 13:20:56;;;;;;;4.23;2.70;;;;;;;;;;5114971;28;20254;-53
2021/03/03 13:23:26;;;;;;;12.10;3.53;;;;;;;;;;5114776;28;20666;-54
2021/03/03 13:25:52;;;;;;;8.53;3.30;;;;;;;;;;5114764;28;20288;-53
2021/03/03 13:28:19;;;;;;;13.47;4.23;;;;;;;;;;5114870;28;20251;-54
2021/03/03 13:30:46;;;;;;;7.77;4.07;;;;;;;;;;5114616;28;20259;-54
2021/03/03 13:33:13;;;;;;;8.67;4.83;;;;;;;;;;5114563;28;20255;-54
2021/03/03 13:35:40;;;;;;;12.70;3.83;;;;;;;;;;5114469;28;20316;-53
2021/03/03 13:38:10;;;;;;;10.33;4.40;;;;;;;;;;5114426;28;20331;-54
2021/03/03 13:40:49;;;;;;;8.67;5.27;;;;;;;;;;5114375;28;20241;-54
2021/03/03 13:43:17;;;;;;;7.87;4.27;;;;;;;;;;5114361;28;20286;-54
2021/03/03 13:45:43;;;;;;;7.77;3.67;;;;;;;;;;5114410;28;20287;-54
2021/03/03 13:48:10;;;;;;;8.73;3.77;;;;;;;;;;5114310;28;20735;-54
2021/03/03 13:50:37;;;;;;;14.40;3.93;;;;;;;;;;5114368;28;20251;-54
2021/03/03 13:53:04;;;;;;;13.37;4.13;;;;;;;;;;5114115;28;20270;-54
2021/03/03 13:55:31;;;;;;;7.70;3.70;;;;;;;;;;5114127;28;20252;-54
2021/03/03 13:57:57;;;;;;;9.90;3.87;;;;;;;;;;5114230;28;20645;-54
2021/03/03 14:00:25;;;;;;;9.20;3.73;;;;;;;;;;5114345;27;20236;-54
2021/03/03 14:02:52;;;;;;;9.73;3.27;;;;;;;;;;5113842;28;20280;-54
2021/03/03 14:05:19;;;;;;;7.50;3.50;;;;;;;;;;5113916;28;20346;-54
2021/03/03 14:07:45;;;;;;;8.73;3.73;;;;;;;;;;5113946;28;20256;-54
2021/03/03 14:10:13;;;;;;;8.47;3.27;;;;;;;;;;5113869;28;20248;-54
2021/03/03 14:12:39;;;;;;;6.47;3.03;;;;;;;;;;5113993;28;20337;-54
2021/03/03 14:15:07;;;;;;;5.97;3.60;;;;;;;;;;5113950;28;20287;-54
2021/03/03 14:17:33;;;;;;;9.57;4.13;;;;;;;;;;5113775;28;20027;-54
2021/03/03 14:20:00;;;;;;;14.47;4.73;;;;;;;;;;5095645;28;20455;-54
2021/03/03 14:22:27;;;;;;;11.63;5.70;;;;;;;;;;5113616;28;20723;-54
2021/03/03 14:24:54;;;;;;;7.43;4.30;;;;;;;;;;5113757;28;20417;-54
2021/03/03 14:27:20;;;;;;;12.60;4.43;;;;;;;;;;5113606;28;20047;-54
2021/03/03 14:29:47;;;;;;;7.53;4.30;;;;;;;;;;5113722;28;20051;-54
2021/03/03 14:32:14;;;;;;;10.13;4.83;;;;;;;;;;5113437;28;20057;-54
2021/03/03 14:34:41;;;;;;;14.83;5.20;;;;;;;;;;5113582;28;20023;-54
2021/03/03 14:37:08;;;;;;;17.07;6.03;;;;;;;;;;5113582;28;20093;-54
2021/03/03 14:39:34;;;;;;;11.57;6.10;;;;;;;;;;5113575;28;20024;-54
2021/03/03 14:42:01;;;;;;;7.73;4.77;;;;;;;;;;5113300;28;20031;-54
2021/03/03 14:44:28;;;;;;;8.80;4.83;;;;;;;;;;5113302;28;20027;-54
2021/03/03 14:46:56;;;;;;;10.27;4.13;;;;;;;;;;5113279;28;20046;-54
2021/03/03 14:49:23;;;;;;;8.43;4.00;;;;;;;;;;5113297;28;20098;-55